createdAt,value
2022-12-20T00:00:51.757Z,7.90
2022-12-20T00:03:18.432Z,7.82
2022-12-20T00:05:45.039Z,8.10
2022-12-20T00:08:11.903Z,7.91
2022-12-20T00:10:39.913Z,7.87
2022-12-20T00:13:06.902Z,7.80
2022-12-20T00:15:33.529Z,7.84
2022-12-20T00:18:00.476Z,7.68
2022-12-20T00:20:27.997Z,7.72
2022-12-20T00:22:54.700Z,7.75
2022-12-20T00:25:21.852Z,8.03
2022-12-20T00:27:49.008Z,7.82
2022-12-20T00:30:15.890Z,7.84
2022-12-20T00:32:42.413Z,7.75
2022-12-20T00:35:09.122Z,8.01
2022-12-20T00:37:35.638Z,7.83
2022-12-20T00:40:02.232Z,8.10
2022-12-20T00:42:28.753Z,8.25
2022-12-20T00:44:55.192Z,8.02
2022-12-20T00:47:21.843Z,7.82
2022-12-20T00:49:48.304Z,8.07
2022-12-20T00:52:14.746Z,8.04
2022-12-20T00:54:41.242Z,7.92
2022-12-20T00:57:07.673Z,8.02
2022-12-20T00:59:34.259Z,8.03
2022-12-20T01:02:00.855Z,7.97
2022-12-20T01:04:27.544Z,7.98
2022-12-20T01:06:53.983Z,8.04
2022-12-20T01:09:20.465Z,8.45
2022-12-20T01:11:46.901Z,7.82
2022-12-20T01:14:15.292Z,8.14
2022-12-20T01:16:44.898Z,8.03
2022-12-20T01:19:15.366Z,8.02
2022-12-20T01:21:44.713Z,8.03
2022-12-20T01:24:12.625Z,8.25
2022-12-20T01:26:39.288Z,8.21
2022-12-20T01:29:05.875Z,8.13
2022-12-20T01:31:32.753Z,8.29
2022-12-20T01:33:59.693Z,8.38
2022-12-20T01:36:29.402Z,8.18
2022-12-20T01:39:01.679Z,8.42
2022-12-20T01:41:29.054Z,8.25
2022-12-20T01:43:58.584Z,8.53
2022-12-20T01:46:27.836Z,8.42
2022-12-20T01:49:00.433Z,8.31
2022-12-20T01:51:27.737Z,8.39
2022-12-20T01:53:58.733Z,7.97
2022-12-20T01:56:25.269Z,8.29
2022-12-20T01:58:52.920Z,8.33
2022-12-20T02:01:19.488Z,8.63
2022-12-20T02:03:46.624Z,8.36
2022-12-20T02:06:22.097Z,8.37
2022-12-20T02:08:49.858Z,8.45
2022-12-20T02:11:31.518Z,8.71
2022-12-20T02:14:19.283Z,8.32
2022-12-20T02:16:53.824Z,8.30
2022-12-20T02:19:58.025Z,8.87
2022-12-20T02:22:24.474Z,8.54
2022-12-20T02:25:17.085Z,8.58
2022-12-20T02:27:57.244Z,8.79
2022-12-20T02:30:28.097Z,8.87
2022-12-20T02:33:01.067Z,8.52
2022-12-20T02:35:31.751Z,8.55
2022-12-20T02:38:00.897Z,8.49
2022-12-20T02:40:39.883Z,8.68
2022-12-20T02:43:29.163Z,8.92
2022-12-20T02:45:57.566Z,8.64
2022-12-20T02:48:25.938Z,8.50
2022-12-20T02:50:54.154Z,8.65
2022-12-20T02:53:21.488Z,8.60
2022-12-20T02:55:54.837Z,8.56
2022-12-20T02:58:43.104Z,8.79
2022-12-20T03:01:17.877Z,8.81
2022-12-20T03:03:44.699Z,8.68
2022-12-20T03:06:11.215Z,8.68
2022-12-20T03:08:37.684Z,8.59
2022-12-20T03:11:04.234Z,8.64
2022-12-20T03:13:30.715Z,8.59
2022-12-20T03:15:57.231Z,8.75
2022-12-20T03:18:23.690Z,8.74
2022-12-20T03:20:50.144Z,8.99
2022-12-20T03:23:16.622Z,8.88
2022-12-20T03:25:43.119Z,9.55
2022-12-20T03:28:09.576Z,9.32
2022-12-20T03:30:36.518Z,9.21
2022-12-20T03:33:03.012Z,8.77
2022-12-20T03:35:29.544Z,9.24
2022-12-20T03:37:56.458Z,9.29
2022-12-20T03:40:23.279Z,9.35
2022-12-20T03:42:49.804Z,9.07
2022-12-20T03:45:16.390Z,9.08
2022-12-20T03:47:42.968Z,9.27
2022-12-20T03:50:09.817Z,9.51
2022-12-20T03:52:36.316Z,9.42
2022-12-20T03:55:03.471Z,9.12
2022-12-20T03:57:29.948Z,9.20
2022-12-20T03:59:56.438Z,9.21
2022-12-20T04:02:23.115Z,9.38
2022-12-20T04:04:49.931Z,9.34
2022-12-20T04:07:16.463Z,9.28
2022-12-20T04:09:42.921Z,9.28
2022-12-20T04:12:09.448Z,9.13
2022-12-20T04:14:37.365Z,9.45
2022-12-20T04:17:04.333Z,9.07
2022-12-20T04:19:30.830Z,9.23
2022-12-20T04:22:04.641Z,8.99
2022-12-20T04:24:32.329Z,9.57
2022-12-20T04:26:58.803Z,9.30
2022-12-20T04:29:25.300Z,9.37
2022-12-20T04:31:51.836Z,9.16
2022-12-20T04:34:18.417Z,9.41
2022-12-20T04:36:44.899Z,9.12
2022-12-20T04:39:11.372Z,9.26
2022-12-20T04:41:37.882Z,9.16
2022-12-20T04:44:04.441Z,9.11
2022-12-20T04:46:30.958Z,9.08
2022-12-20T04:48:59.290Z,9.14
2022-12-20T04:51:27.208Z,9.44
2022-12-20T04:53:54.101Z,9.17
2022-12-20T04:56:20.524Z,9.32
2022-12-20T04:58:48.325Z,9.30
2022-12-20T05:01:15.229Z,9.28
2022-12-20T05:03:42.045Z,9.29
2022-12-20T05:06:08.935Z,9.34
2022-12-20T05:08:35.540Z,9.43
2022-12-20T05:11:02.301Z,9.06
2022-12-20T05:13:28.847Z,9.27
2022-12-20T05:15:56.310Z,9.19
2022-12-20T05:18:23.609Z,9.47
2022-12-20T05:21:10.075Z,9.55
2022-12-20T05:23:55.843Z,9.25
2022-12-20T05:26:24.658Z,9.17
2022-12-20T05:28:52.759Z,9.16
2022-12-20T05:31:19.296Z,9.18
2022-12-20T05:33:45.845Z,9.29
2022-12-20T05:36:12.333Z,9.47
2022-12-20T05:38:38.901Z,9.35
2022-12-20T05:41:06.726Z,9.30
2022-12-20T05:43:33.548Z,9.20
2022-12-20T05:46:00.399Z,9.22
2022-12-20T05:48:27.058Z,9.55
2022-12-20T05:50:53.530Z,9.38
2022-12-20T05:53:20.124Z,9.60
2022-12-20T05:55:51.698Z,9.24
2022-12-20T05:58:18.464Z,9.26
2022-12-20T06:00:45.488Z,9.54
2022-12-20T06:03:12.300Z,9.52
2022-12-20T06:05:39.711Z,9.51
2022-12-20T06:08:07.325Z,9.54
2022-12-20T06:10:37.620Z,9.51
2022-12-20T06:13:04.613Z,9.52
2022-12-20T06:15:31.411Z,9.59
2022-12-20T06:17:58.088Z,9.32
2022-12-20T06:20:24.823Z,9.64
2022-12-20T06:22:52.628Z,9.40
2022-12-20T06:25:19.297Z,9.57
2022-12-20T06:27:45.786Z,9.49
2022-12-20T06:30:13.155Z,9.17
2022-12-20T06:32:39.648Z,9.37
2022-12-20T06:35:06.694Z,9.50
2022-12-20T06:37:33.272Z,9.37
2022-12-20T06:40:00.296Z,9.32
2022-12-20T06:42:26.808Z,9.38
2022-12-20T06:44:53.261Z,9.27
2022-12-20T06:47:19.809Z,9.38
2022-12-20T06:49:46.246Z,9.83
2022-12-20T06:52:12.784Z,9.63
2022-12-20T06:54:39.236Z,9.74
2022-12-20T06:57:06.926Z,9.79
2022-12-20T06:59:33.568Z,9.49
2022-12-20T07:02:00.273Z,9.48
2022-12-20T07:04:27.042Z,9.57
2022-12-20T07:06:53.582Z,9.42
2022-12-20T07:09:20.037Z,9.35
2022-12-20T07:11:46.459Z,9.37
2022-12-20T07:14:12.981Z,9.59
2022-12-20T07:16:42.729Z,9.31
2022-12-20T07:19:14.251Z,9.57
2022-12-20T07:21:40.793Z,9.60
2022-12-20T07:24:08.092Z,9.53
2022-12-20T07:26:34.681Z,9.74
2022-12-20T07:29:01.890Z,9.76
2022-12-20T07:31:28.411Z,9.59
2022-12-20T07:33:54.914Z,9.68
2022-12-20T07:36:21.389Z,9.53
2022-12-20T07:38:49.081Z,9.63
2022-12-20T07:41:18.097Z,9.64
2022-12-20T07:43:44.708Z,9.78
2022-12-20T07:46:13.169Z,9.66
2022-12-20T07:48:39.821Z,9.86
2022-12-20T07:51:08.659Z,9.99
2022-12-20T07:53:38.292Z,10.05
2022-12-20T07:56:05.640Z,9.99
2022-12-20T07:58:35.063Z,10.04
2022-12-20T08:01:01.801Z,9.93
2022-12-20T08:03:32.058Z,9.80
2022-12-20T08:06:00.990Z,9.84
2022-12-20T08:08:27.606Z,9.80
2022-12-20T08:10:54.104Z,9.99
2022-12-20T08:13:20.598Z,10.49
2022-12-20T08:15:47.089Z,10.22
2022-12-20T08:18:13.580Z,9.86
2022-12-20T08:20:40.039Z,10.10
2022-12-20T08:23:06.977Z,9.97
2022-12-20T08:25:41.192Z,10.20
2022-12-20T08:28:08.122Z,10.13
2022-12-20T08:30:34.624Z,10.09
2022-12-20T08:33:01.157Z,9.85
2022-12-20T08:35:27.627Z,10.17
2022-12-20T08:37:54.133Z,10.55
2022-12-20T08:40:20.773Z,10.18
2022-12-20T08:42:47.375Z,9.98
2022-12-20T08:45:13.877Z,10.29
2022-12-20T08:47:40.569Z,10.04
2022-12-20T08:50:07.658Z,10.22
2022-12-20T08:52:34.176Z,10.12
2022-12-20T08:55:01.911Z,10.61
2022-12-20T08:57:28.799Z,10.01
2022-12-20T08:59:55.261Z,10.16
2022-12-20T09:02:21.996Z,10.09
2022-12-20T09:04:48.773Z,10.38
2022-12-20T09:07:15.212Z,10.03
2022-12-20T09:09:41.705Z,10.03
2022-12-20T09:12:08.153Z,10.42
2022-12-20T09:14:34.700Z,10.31
2022-12-20T09:17:01.173Z,10.34
2022-12-20T09:19:29.547Z,10.69
2022-12-20T09:21:56.209Z,10.42
2022-12-20T09:24:22.756Z,10.53
2022-12-20T09:26:50.314Z,10.56
2022-12-20T09:29:25.812Z,10.55
2022-12-20T09:31:53.671Z,10.84
2022-12-20T09:34:20.152Z,11.01
2022-12-20T09:36:46.622Z,10.74
2022-12-20T09:39:13.128Z,10.55
2022-12-20T09:41:41.418Z,10.82
2022-12-20T09:44:17.050Z,10.45
2022-12-20T09:46:44.459Z,10.69
2022-12-20T09:49:16.220Z,10.76
2022-12-20T09:51:54.747Z,10.45
2022-12-20T09:54:27.290Z,10.61
2022-12-20T09:57:04.500Z,10.57
2022-12-20T09:59:39.547Z,10.52
2022-12-20T10:02:43.578Z,10.49
2022-12-20T10:04:58.901Z,10.71
2022-12-20T10:07:37.872Z,10.60
2022-12-20T10:10:21.954Z,10.80
2022-12-20T10:13:00.874Z,10.32
2022-12-20T10:15:35.219Z,10.81
2022-12-20T10:18:01.704Z,10.84
2022-12-20T10:20:39.795Z,10.74
2022-12-20T10:23:17.782Z,10.59
2022-12-20T10:25:46.149Z,10.66
2022-12-20T10:28:15.475Z,10.67
2022-12-20T10:30:42.746Z,10.56
2022-12-20T10:33:21.737Z,10.85
2022-12-20T10:35:50.671Z,10.75
2022-12-20T10:38:21.008Z,10.56
2022-12-20T10:41:21.120Z,10.93
2022-12-20T10:43:52.848Z,10.61
2022-12-20T10:46:19.485Z,10.65
2022-12-20T10:48:48.479Z,10.66
2022-12-20T10:51:25.330Z,11.02
2022-12-20T10:53:54.909Z,11.00
2022-12-20T10:56:32.836Z,11.08
2022-12-20T10:59:23.688Z,11.16
2022-12-20T11:01:50.780Z,11.22
2022-12-20T11:04:32.259Z,10.79
2022-12-20T11:07:01.047Z,10.98
2022-12-20T11:09:36.065Z,11.02
2022-12-20T11:12:05.655Z,11.14
2022-12-20T11:14:39.145Z,10.96
2022-12-20T11:17:35.568Z,11.15
2022-12-20T11:20:08.195Z,10.99
2022-12-20T11:23:05.556Z,11.27
2022-12-20T11:25:50.804Z,11.38
2022-12-20T11:28:36.439Z,11.65
2022-12-20T11:31:06.021Z,11.34
2022-12-20T11:33:47.560Z,11.33
2022-12-20T11:36:37.188Z,11.28
2022-12-20T11:39:36.191Z,11.40
2022-12-20T11:42:14.704Z,11.88
2022-12-20T11:45:03.545Z,11.18
2022-12-20T11:47:55.916Z,11.26
2022-12-20T11:50:31.527Z,11.45
2022-12-20T11:53:00.678Z,11.38
2022-12-20T11:55:41.938Z,11.55
2022-12-20T11:58:26.321Z,11.40
2022-12-20T12:00:58.288Z,11.61
2022-12-20T12:03:29.135Z,11.31
2022-12-20T12:06:29.392Z,11.67
2022-12-20T12:09:11.940Z,11.60
2022-12-20T12:15:17.446Z,11.00
2022-12-20T12:18:11.823Z,11.27
2022-12-20T12:20:56.624Z,11.41
2022-12-20T12:23:29.840Z,11.50
2022-12-20T12:25:58.444Z,11.07
2022-12-20T12:28:24.975Z,11.50
2022-12-20T12:31:04.092Z,11.11
2022-12-20T12:33:50.826Z,11.02
2022-12-20T12:36:45.203Z,11.54
2022-12-20T12:39:31.882Z,11.29
2022-12-20T12:42:35.316Z,11.44
2022-12-20T12:45:09.977Z,11.46
2022-12-20T12:47:40.398Z,11.45
2022-12-20T12:50:14.949Z,11.55
2022-12-20T12:52:46.180Z,11.41
2022-12-20T12:55:50.600Z,11.48
2022-12-20T12:58:24.171Z,11.48
2022-12-20T13:00:58.256Z,11.40
2022-12-20T13:03:48.476Z,11.64
2022-12-20T13:06:25.250Z,11.64
2022-12-20T13:09:00.731Z,11.40
2022-12-20T13:11:34.007Z,11.44
2022-12-20T13:14:24.822Z,11.53
2022-12-20T13:17:13.106Z,11.33
2022-12-20T13:19:52.103Z,11.50
2022-12-20T13:22:23.860Z,11.50
2022-12-20T13:25:04.019Z,11.58
2022-12-20T13:27:33.189Z,11.50
2022-12-20T13:30:11.983Z,11.35
2022-12-20T13:32:47.887Z,11.08
2022-12-20T13:35:26.694Z,11.58
2022-12-20T13:38:06.317Z,11.21
2022-12-20T13:40:35.425Z,11.37
2022-12-20T13:43:20.303Z,11.53
2022-12-20T13:45:51.811Z,11.80
2022-12-20T13:48:23.134Z,11.56
2022-12-20T13:50:52.931Z,11.40
2022-12-20T13:53:22.228Z,11.58
2022-12-20T13:55:49.708Z,11.44
2022-12-20T13:58:19.056Z,11.20
2022-12-20T14:00:47.630Z,11.52
2022-12-20T14:03:19.946Z,11.39
2022-12-20T14:05:46.584Z,11.28
2022-12-20T14:08:25.210Z,11.46
2022-12-20T14:10:52.803Z,10.94
2022-12-20T14:13:24.477Z,11.36
2022-12-20T14:15:51.995Z,11.36
2022-12-20T14:18:24.766Z,11.34
2022-12-20T14:20:58.410Z,11.39
2022-12-20T14:23:45.856Z,11.30
2022-12-20T14:26:17.332Z,11.23
2022-12-20T14:28:47.217Z,11.12
2022-12-20T14:31:33.705Z,11.19
2022-12-20T14:34:11.801Z,10.92
2022-12-20T14:36:40.053Z,11.01
2022-12-20T14:39:27.622Z,11.11
2022-12-20T14:42:09.854Z,11.02
2022-12-20T14:44:36.420Z,11.05
2022-12-20T14:47:17.108Z,11.08
2022-12-20T14:49:54.094Z,11.15
2022-12-20T14:52:25.374Z,11.34
2022-12-20T14:55:11.068Z,11.00
2022-12-20T14:57:39.344Z,11.01
2022-12-20T15:00:14.025Z,10.99
2022-12-20T15:02:55.918Z,11.06
2022-12-20T15:05:34.954Z,11.21
2022-12-20T15:08:19.598Z,11.09
2022-12-20T15:10:59.969Z,11.29
2022-12-20T15:13:36.732Z,11.18
2022-12-20T15:16:14.591Z,11.03
2022-12-20T15:18:41.409Z,11.14
2022-12-20T15:21:15.236Z,11.18
2022-12-20T15:23:48.235Z,11.23
2022-12-20T15:26:20.853Z,10.87
2022-12-20T15:28:47.546Z,11.44
2022-12-20T15:31:18.921Z,10.92
2022-12-20T15:33:46.221Z,11.02
2022-12-20T15:36:21.603Z,11.07
2022-12-20T15:39:11.325Z,11.16
2022-12-20T15:41:34.910Z,11.27
2022-12-20T15:44:05.857Z,11.13
2022-12-20T15:46:32.742Z,11.22
2022-12-20T15:48:59.428Z,11.15
2022-12-20T15:51:32.574Z,11.09
2022-12-20T15:54:00.692Z,11.12
2022-12-20T15:56:28.059Z,10.90
2022-12-20T15:58:54.716Z,11.13
2022-12-20T16:01:39.805Z,10.90
2022-12-20T16:04:08.093Z,10.93
2022-12-20T16:06:34.632Z,11.13
2022-12-20T16:09:01.280Z,10.84
2022-12-20T16:11:29.640Z,10.99
2022-12-20T16:13:57.617Z,11.17
2022-12-20T16:16:29.479Z,10.71
2022-12-20T16:18:56.364Z,10.76
2022-12-20T16:21:25.447Z,10.76
2022-12-20T16:23:52.238Z,11.05
2022-12-20T16:26:21.397Z,10.77
2022-12-20T16:28:49.325Z,10.55
2022-12-20T16:31:25.667Z,10.80
2022-12-20T16:33:52.842Z,11.10
2022-12-20T16:36:19.411Z,10.97
2022-12-20T16:38:46.217Z,11.15
2022-12-20T16:41:15.411Z,10.83
2022-12-20T16:43:42.553Z,11.35
2022-12-20T16:46:13.898Z,11.22
2022-12-20T16:48:41.734Z,10.66
2022-12-20T16:51:33.537Z,11.20
2022-12-20T16:54:21.377Z,11.22
2022-12-20T16:56:51.948Z,11.23
2022-12-20T16:59:21.243Z,11.13
2022-12-20T17:01:49.356Z,10.79
2022-12-20T17:04:17.604Z,10.71
2022-12-20T17:06:44.887Z,11.49
2022-12-20T17:11:58.860Z,10.79
2022-12-20T17:14:25.323Z,10.84
2022-12-20T17:16:51.850Z,10.89
2022-12-20T17:19:18.330Z,11.02
2022-12-20T17:24:31.394Z,10.99
2022-12-20T17:26:57.941Z,11.32
2022-12-20T17:29:26.225Z,11.29
2022-12-20T17:31:57.047Z,11.12
2022-12-20T17:34:28.056Z,11.50
2022-12-20T17:36:56.625Z,11.22
2022-12-20T17:39:24.903Z,11.19
2022-12-20T17:41:53.128Z,11.30
2022-12-20T17:44:25.531Z,10.96
2022-12-20T17:46:54.605Z,11.21
2022-12-20T17:49:23.025Z,11.26
2022-12-20T17:51:51.588Z,11.50
2022-12-20T17:54:20.418Z,11.06
2022-12-20T17:56:47.801Z,11.15
2022-12-20T17:59:15.158Z,11.56
2022-12-20T18:01:43.195Z,11.45
2022-12-20T18:04:12.499Z,11.44
2022-12-20T18:06:40.416Z,11.04
2022-12-20T18:09:12.183Z,11.41
2022-12-20T18:11:38.798Z,11.41
2022-12-20T18:14:05.280Z,11.53
2022-12-20T18:16:35.042Z,11.28
2022-12-20T18:19:02.332Z,11.48
2022-12-20T18:21:29.151Z,11.49
2022-12-20T18:23:56.134Z,11.39
2022-12-20T18:26:30.644Z,11.55
2022-12-20T18:29:01.261Z,11.13
2022-12-20T18:31:29.791Z,11.34
2022-12-20T18:33:58.430Z,11.28
2022-12-20T18:36:27.821Z,11.01
2022-12-20T18:38:54.414Z,11.39
2022-12-20T18:41:26.381Z,11.40
2022-12-20T18:43:53.922Z,11.56
2022-12-20T18:46:22.356Z,11.55
2022-12-20T18:48:53.792Z,11.27
2022-12-20T18:51:22.665Z,11.64
2022-12-20T18:53:50.442Z,11.54
2022-12-20T18:56:19.902Z,11.74
2022-12-20T18:58:47.468Z,11.40
2022-12-20T19:01:26.030Z,11.63
2022-12-20T19:03:53.323Z,11.35
2022-12-20T19:06:20.484Z,11.17
2022-12-20T19:08:47.481Z,11.31
2022-12-20T19:11:17.014Z,11.57
2022-12-20T19:13:43.835Z,11.74
2022-12-20T19:16:13.088Z,11.35
2022-12-20T19:18:40.523Z,11.63
2022-12-20T19:21:10.838Z,11.27
2022-12-20T19:23:38.540Z,11.19
2022-12-20T19:26:07.487Z,11.41
2022-12-20T19:28:34.575Z,11.35
2022-12-20T19:31:21.710Z,11.85
2022-12-20T19:33:49.870Z,11.18
2022-12-20T19:36:19.614Z,11.52
2022-12-20T19:38:48.507Z,11.72
2022-12-20T19:41:16.091Z,11.76
2022-12-20T19:43:43.556Z,11.46
2022-12-20T19:46:13.984Z,11.78
2022-12-20T19:48:42.147Z,11.78
2022-12-20T19:51:11.781Z,11.60
2022-12-20T19:53:39.752Z,11.75
2022-12-20T19:56:08.727Z,11.78
2022-12-20T19:58:36.056Z,11.54
2022-12-20T20:01:05.054Z,12.06
2022-12-20T20:03:32.608Z,11.65
2022-12-20T20:05:59.307Z,11.72
2022-12-20T20:08:25.887Z,11.71
2022-12-20T20:10:54.153Z,11.71
2022-12-20T20:13:20.759Z,11.31
2022-12-20T20:15:51.623Z,11.67
2022-12-20T20:18:18.249Z,11.42
2022-12-20T20:20:44.820Z,11.78
2022-12-20T20:23:11.336Z,11.84
2022-12-20T20:25:37.996Z,11.26
2022-12-20T20:28:04.893Z,11.76
2022-12-20T20:30:31.368Z,11.69
2022-12-20T20:32:57.905Z,11.92
2022-12-20T20:35:24.390Z,11.55
2022-12-20T20:37:51.844Z,11.53
2022-12-20T20:40:18.302Z,12.15
2022-12-20T20:42:44.750Z,11.77
2022-12-20T20:45:11.470Z,11.26
2022-12-20T20:47:37.979Z,11.94
2022-12-20T20:50:05.105Z,12.32
2022-12-20T20:52:31.532Z,11.77
2022-12-20T20:54:58.771Z,12.21
2022-12-20T20:57:25.354Z,11.93
2022-12-20T20:59:51.967Z,11.88
2022-12-20T21:02:20.951Z,11.86
2022-12-20T21:05:14.415Z,11.78
2022-12-20T21:07:34.149Z,12.05
2022-12-20T21:10:00.621Z,12.21
2022-12-20T21:12:27.124Z,12.17
2022-12-20T21:15:21.322Z,12.42
2022-12-20T21:17:40.370Z,11.92
2022-12-20T21:20:07.517Z,12.24
2022-12-20T21:22:34.007Z,11.96
2022-12-20T21:25:00.543Z,11.79
2022-12-20T21:27:26.982Z,12.26
2022-12-20T21:29:53.460Z,11.85
2022-12-20T21:32:19.926Z,12.13
2022-12-20T21:34:46.369Z,12.20
2022-12-20T21:37:12.960Z,12.21
2022-12-20T21:39:39.422Z,12.24
2022-12-20T21:42:05.911Z,12.24
2022-12-20T21:44:32.399Z,12.05
2022-12-20T21:46:58.976Z,12.24
2022-12-20T21:49:25.482Z,12.59
2022-12-20T21:51:56.419Z,12.05
2022-12-20T21:54:23.673Z,12.11
2022-12-20T21:56:51.287Z,12.40
2022-12-20T21:59:18.501Z,12.45
2022-12-20T22:01:48.133Z,12.29
2022-12-20T22:04:15.593Z,12.35
2022-12-20T22:06:43.203Z,12.39
2022-12-20T22:09:10.256Z,12.32
2022-12-20T22:11:37.131Z,12.41
2022-12-20T22:14:03.742Z,12.39
2022-12-20T22:16:32.287Z,12.46
2022-12-20T22:18:59.590Z,12.15
2022-12-20T22:21:28.139Z,11.93
2022-12-20T22:23:56.256Z,11.85
2022-12-20T22:26:25.160Z,11.96
2022-12-20T22:28:54.521Z,11.80
2022-12-20T22:31:23.376Z,11.73
2022-12-20T22:33:54.088Z,11.93
2022-12-20T22:36:20.864Z,12.19
2022-12-20T22:38:50.187Z,12.62
2022-12-20T22:41:20.045Z,12.53
2022-12-20T22:43:47.346Z,12.53
2022-12-20T22:46:15.500Z,12.34
2022-12-20T22:48:43.544Z,12.29
2022-12-20T22:51:16.071Z,12.50
2022-12-20T22:53:43.304Z,12.27
2022-12-20T22:56:13.632Z,12.23
2022-12-20T22:58:41.351Z,12.26
2022-12-20T23:01:10.638Z,12.08
2022-12-20T23:03:37.394Z,12.40
2022-12-20T23:06:06.035Z,12.63
2022-12-20T23:08:35.295Z,12.21
2022-12-20T23:11:20.613Z,12.48
2022-12-20T23:14:05.890Z,12.49
2022-12-20T23:16:32.578Z,12.62
2022-12-20T23:19:01.858Z,12.41
2022-12-20T23:21:48.255Z,12.49
2022-12-20T23:24:15.289Z,12.54
2022-12-20T23:26:42.690Z,12.42
2022-12-20T23:29:10.103Z,12.21
2022-12-20T23:31:36.707Z,12.34
2022-12-20T23:34:03.514Z,12.37
2022-12-20T23:36:30.463Z,12.45
2022-12-20T23:38:56.943Z,12.39
2022-12-20T23:41:23.716Z,12.05
2022-12-20T23:43:50.284Z,12.23
2022-12-20T23:46:18.548Z,12.38
2022-12-20T23:48:45.183Z,12.34
2022-12-20T23:51:11.711Z,12.48
2022-12-20T23:53:38.407Z,12.61
2022-12-20T23:56:13.151Z,12.39
2022-12-20T23:58:39.872Z,12.45
